Latest Weather Observations for Gladstone Airport

IDQ60801

Issued at 9:31 am EST Wednesday 1 June 2016 (issued every 30 minutes, with the page automatically refreshed every 10 minutes)

About weather observations | Map of weather stations | Latest weather observations for QLD | Other Formats
Station Details ID: 039326 Name: GLADSTONE AIRPORT Lat: -23.87 Lon: 151.22 Height: 16.6 m
Data from the previous 72 hours. | See also: Recent months at Gladstone Airport
Date/Time
EST
Temp
°C
App
Temp
°C
Dew
Point
Rel
Hum
%
Delta-T
°C
Wind Press
QNH
hPa
Press
MSL
hPa
Rain
since 9 am
mm
Dir
 
Spd
km/h
Gust
km/h
Spd
kts
Gust
kts
01/09:30am 20.9 20.3 13.4 62 4.3 S 9 22 5 12 1022.7 1022.7 0.0
01/09:00am 19.7 19.1 13.4 67 3.6 S 9 15 5 8 1022.8 1022.8 0.0
01/08:30am 18.4 18.0 13.1 71 3.0 SW 7 11 4 6 1023.0 1023.0 0.0
01/08:00am 19.1 18.8 12.6 66 3.6 SSW 6 9 3 5 1022.8 1022.8 0.0
01/07:30am 19.7 18.8 12.5 63 4.0 SSE 9 15 5 8 1022.4 1022.4 0.0
01/07:00am 19.6 17.9 12.4 63 4.0 SSE 13 19 7 10 1022.2 1022.2 0.0
01/06:30am 19.5 17.8 12.5 64 3.9 SSE 13 24 7 13 1022.1 1022.1 0.0
01/06:00am 18.4 17.9 12.6 69 3.2 S 7 13 4 7 1021.8 1021.8 0.0
01/05:30am 18.0 17.7 12.7 71 3.0 SSW 6 7 3 4 1021.8 1021.8 0.0
01/05:00am 18.7 17.6 12.0 65 3.7 SSW 9 13 5 7 1021.8 1021.8 0.0
01/04:30am 19.5 18.0 11.8 61 4.3 SSE 11 15 6 8 1021.6 1021.6 0.0
01/04:00am 19.5 18.5 12.3 63 4.0 SSE 9 15 5 8 1021.7 1021.7 0.0
01/03:30am 18.9 17.8 11.9 64 3.9 S 9 11 5 6 1021.8 1021.8 0.0
01/03:00am 18.7 17.6 11.8 64 3.8 S 9 13 5 7 1021.7 1021.7 0.0
01/02:30am 19.3 18.2 11.8 62 4.1 SSE 9 13 5 7 1021.7 1021.7 0.0
01/02:00am 19.0 17.9 11.8 63 4.0 SSE 9 11 5 6 1021.9 1021.9 0.0
01/01:30am 18.7 17.6 11.8 64 3.8 SSE 9 11 5 6 1022.0 1022.0 0.0
01/01:00am 18.4 17.9 12.2 67 3.4 SSE 6 7 3 4 1022.4 1022.4 0.0
01/12:30am 18.6 18.0 12.4 67 3.5 SSE 7 11 4 6 1022.8 1022.8 0.0
01/12:00am 18.6 18.0 12.4 67 3.4 SSE 7 11 4 6 1022.8 1022.8 0.0
 
Date/Time
EST
Temp
°C
App
Temp
°C
Dew
Point
Rel
Hum
%
Delta-T
°C
Wind Press
QNH
hPa
Press
MSL
hPa
Rain
since 9 am
mm
Dir
 
Spd
km/h
Gust
km/h
Spd
kts
Gust
kts
31/11:30pm 18.8 17.8 12.3 66 3.6 SSE 9 11 5 6 1023.2 1023.2 0.0
31/11:00pm 19.0 18.5 12.5 66 3.6 SSE 7 9 4 5 1023.3 1023.3 0.0
31/10:30pm 18.9 18.4 12.6 67 3.5 S 7 11 4 6 1023.6 1023.5 0.0
31/10:00pm 19.3 18.5 12.8 66 3.6 SSE 9 17 5 9 1023.6 1023.5 0.0
31/09:30pm 19.6 18.8 12.8 65 3.8 SSE 9 13 5 7 1023.8 1023.7 0.0
31/09:00pm 19.9 19.1 12.9 64 3.9 SSE 9 15 5 8 1023.7 1023.6 0.0
31/08:30pm 20.3 19.6 13.3 64 4.0 SE 9 15 5 8 1023.3 1023.3 0.0
31/08:00pm 20.5 19.1 13.5 64 4.0 SE 13 19 7 10 1023.5 1023.4 0.0
31/07:30pm 21.0 19.6 13.4 62 4.4 SE 13 19 7 10 1023.2 1023.2 0.0
31/07:00pm 21.2 20.0 13.9 63 4.2 SE 13 20 7 11 1023.2 1023.2 0.0
31/06:30pm 21.4 20.4 14.6 65 4.0 SE 13 19 7 10 1023.0 1023.0 0.0
31/06:00pm 21.5 20.1 14.4 64 4.1 ESE 15 20 8 11 1022.5 1022.5 0.0
31/05:30pm 21.8 20.5 14.7 64 4.2 ESE 15 20 8 11 1022.3 1022.3 0.0
31/05:00pm 22.0 19.8 14.4 62 4.4 ESE 19 26 10 14 1022.0 1022.0 0.0
31/04:30pm 22.6 20.0 13.9 58 5.1 ESE 20 24 11 13 1021.9 1021.9 0.0
31/04:00pm 22.9 19.4 13.4 55 5.5 ESE 24 30 13 16 1021.6 1021.6 0.0
31/03:30pm 23.7 20.2 13.3 52 6.0 E 24 32 13 17 1021.5 1021.5 0.0
31/03:00pm 23.9 20.2 12.8 49 6.4 E 24 30 13 16 1021.6 1021.6 0.0
31/02:30pm 23.7 20.1 13.0 51 6.2 E 24 30 13 16 1022.0 1022.0 0.0
31/02:00pm 23.8 20.3 12.1 48 6.6 E 22 30 12 16 1022.0 1022.0 0.0
31/01:30pm 24.6 21.0 12.9 48 6.8 E 24 32 13 17 1021.9 1021.9 0.0
31/01:00pm 24.0 20.4 12.9 50 6.4 ESE 24 32 13 17 1022.4 1022.4 0.0
31/12:30pm 23.7 20.2 13.3 52 6.0 ESE 24 33 13 18 1022.9 1022.9 0.0
31/12:00pm 24.3 20.9 12.6 48 6.7 ESE 22 35 12 19 1023.5 1023.4 0.0
31/11:30am 24.2 20.5 12.8 49 6.6 ESE 24 35 13 19 1023.8 1023.7 0.0
31/11:00am 24.1 20.1 13.0 50 6.4 ESE 26 35 14 19 1024.0 1023.9 0.0
31/10:30am 24.0 21.1 12.9 50 6.4 ESE 20 30 11 16 1024.5 1024.4 0.0
31/10:00am 23.2 20.9 13.1 53 5.8 ESE 17 28 9 15 1024.8 1024.7 0.0
31/09:30am 22.4 20.0 12.6 54 5.6 SE 17 22 9 12 1024.9 1024.8 0.0
31/09:00am 21.2 20.3 13.6 62 4.4 S 11 20 6 11 1024.9 1024.8 0.0
31/08:30am 18.1 16.8 11.4 65 3.7 SW 9 13 5 7 1024.8 1024.7 0.0
31/08:00am 16.9 15.5 11.0 68 3.2 SSW 9 13 5 7 1024.4 1024.3 0.0
31/07:30am 14.3 11.7 9.5 73 2.5 SSW 13 19 7 10 1024.3 1024.2 0.0
31/07:00am 13.1 10.5 9.2 77 2.0 SSW 13 15 7 8 1023.8 1023.7 0.0
31/06:30am 12.7 10.5 9.2 79 1.8 SSW 11 15 6 8 1023.3 1023.3 0.0
31/06:00am 12.9 10.7 9.2 78 1.9 SSW 11 15 6 8 1023.2 1023.2 0.0
31/05:30am 12.9 10.2 9.0 77 2.0 SSW 13 17 7 9 1023.0 1023.0 0.0
31/05:00am 13.2 10.5 9.1 76 2.1 SSW 13 17 7 9 1022.7 1022.7 0.0
31/04:30am 13.2 10.9 8.9 75 2.2 SSW 11 15 6 8 1022.4 1022.4 0.0
31/04:00am 13.2 11.2 8.5 73 2.3 SSW 9 13 5 7 1022.1 1022.1 0.0
31/03:30am 13.5 11.1 8.6 72 2.5 SSW 11 15 6 8 1022.4 1022.4 0.0
31/03:00am 13.5 11.1 8.6 72 2.4 SSW 11 13 6 7 1022.3 1022.3 0.0
31/02:30am 14.0 11.6 8.8 71 2.6 SSW 11 13 6 7 1022.1 1022.1 0.0
31/02:00am 14.3 12.0 9.1 71 2.6 SSW 11 15 6 8 1022.3 1022.3 0.0
31/01:30am 14.2 12.0 9.4 73 2.5 SSW 11 13 6 7 1022.4 1022.4 0.0
31/01:00am 14.3 12.2 9.7 74 2.4 SSW 11 13 6 7 1022.7 1022.7 0.0
31/12:30am 14.8 12.7 9.6 71 2.7 SSW 11 15 6 8 1022.8 1022.8 0.0
31/12:00am 15.1 13.2 9.2 68 3.0 SSW 9 11 5 6 1022.8 1022.8 0.0
 
Date/Time
EST
Temp
°C
App
Temp
°C
Dew
Point
Rel
Hum
%
Delta-T
°C
Wind Press
QNH
hPa
Press
MSL
hPa
Rain
since 9 am
mm
Dir
 
Spd
km/h
Gust
km/h
Spd
kts
Gust
kts
30/11:30pm 15.0 13.7 9.1 68 3.0 SSW 6 9 3 5 1022.9 1022.9 0.0
30/11:00pm 15.3 14.6 9.9 70 2.8 S 4 6 2 3 1022.7 1022.7 0.0
30/10:30pm 15.9 14.9 10.2 69 3.0 SSW 6 7 3 4 1023.0 1023.0 0.0
30/10:00pm 15.8 14.9 10.6 71 2.7 SSW 6 9 3 5 1023.0 1023.0 0.0
30/09:30pm 16.3 16.6 10.8 70 2.9 CALM 0 6 0 3 1022.9 1022.9 0.0
30/09:00pm 16.8 15.9 11.3 70 3.0 S 7 9 4 5 1022.8 1022.8 0.0
30/08:30pm 17.1 16.2 11.4 69 3.1 SSW 7 7 4 4 1022.9 1022.9 0.0
30/08:00pm 17.6 16.3 11.4 67 3.4 SSW 9 11 5 6 1022.6 1022.6 0.0
30/07:30pm 18.8 18.0 10.9 60 4.3 SE 6 7 3 4 1022.5 1022.5 0.0
30/07:00pm 20.2 19.2 11.1 56 5.0 E 7 11 4 6 1022.1 1022.1 0.0
30/06:30pm 20.4 19.3 11.9 58 4.7 E 9 13 5 7 1021.8 1021.8 0.0
30/06:00pm 20.6 19.0 11.5 56 5.0 E 11 17 6 9 1021.4 1021.4 0.0
30/05:30pm 20.9 18.8 11.3 54 5.3 E 13 17 7 9 1021.0 1021.0 0.0
30/05:00pm 21.6 18.5 10.4 49 6.1 ENE 17 22 9 12 1020.6 1020.6 0.0
30/04:30pm 22.4 19.9 11.2 49 6.2 ENE 15 20 8 11 1020.4 1020.4 0.0
30/04:00pm 22.8 19.7 10.3 45 6.8 ENE 17 20 9 11 1020.1 1020.1 0.0
30/03:30pm 23.3 20.3 10.7 45 7.0 ENE 17 20 9 11 1020.0 1020.0 0.0
30/03:00pm 23.7 21.0 10.4 43 7.3 NE 15 22 8 12 1019.9 1019.9 0.0
30/02:30pm 24.2 21.4 10.1 41 7.8 ENE 15 20 8 11 1019.8 1019.8 0.0
30/02:00pm 24.2 21.3 9.8 40 7.9 NE 15 19 8 10 1020.0 1020.0 0.0
30/01:30pm 23.9 21.2 9.1 39 8.0 NE 13 20 7 11 1020.3 1020.3 0.0
30/01:00pm 24.6 22.2 10.1 40 8.0 NE 13 20 7 11 1020.6 1020.6 0.0
30/12:30pm 24.2 21.8 8.6 37 8.4 NE 11 17 6 9 1020.9 1020.9 0.0
30/12:00pm 23.4 20.7 7.5 36 8.3 NNE 11 19 6 10 1021.6 1021.6 0.0
30/11:30am 23.4 21.2 7.9 37 8.2 WNW 9 11 5 6 1022.1 1022.1 0.0
30/11:00am 23.2 21.1 6.5 34 8.5 NE 7 11 4 6 1022.5 1022.5 0.0
30/10:30am 22.4 20.4 6.2 35 8.2 W 6 9 3 5 1022.6 1022.6 0.0
30/10:00am 21.0 19.0 7.3 41 7.0 SW 7 11 4 6 1022.9 1022.9 0.0
30/09:30am 18.9 16.4 6.7 45 6.1 SW 9 11 5 6 1023.2 1023.2 0.0
30/09:00am 17.4 15.2 6.3 48 5.4 SW 7 9 4 5 1023.1 1023.1 0.0
30/08:30am 15.9 13.6 5.5 50 5.0 SW 7 11 4 6 1022.8 1022.8 0.0
30/08:00am 14.0 11.6 5.1 55 4.1 SSW 7 11 4 6 1022.4 1022.4 0.0
30/07:30am 12.3 9.0 4.8 60 3.4 SSW 11 17 6 9 1022.2 1022.2 0.0
30/07:00am 11.0 7.4 5.1 67 2.7 SSW 13 19 7 10 1021.8 1021.8 0.0
30/06:30am 10.6 7.1 5.4 70 2.4 SSW 13 19 7 10 1021.5 1021.5 0.0
30/06:00am 11.0 7.5 5.3 68 2.6 SSW 13 17 7 9 1021.1 1021.1 0.0
30/05:30am 11.3 8.6 5.4 67 2.7 SW 9 15 5 8 1021.0 1021.0 0.0
30/05:00am 11.4 8.8 5.9 69 2.6 SW 9 15 5 8 1020.7 1020.7 0.0
30/04:30am 11.5 8.2 6.2 70 2.5 SW 13 17 7 9 1020.3 1020.3 0.0
30/04:00am 12.1 9.2 6.6 69 2.6 SSW 11 17 6 9 1020.0 1020.0 0.0
30/03:30am 12.1 9.4 7.2 72 2.4 SSW 11 17 6 9 1020.0 1020.0 0.0
30/03:00am 12.5 9.5 7.6 72 2.4 SSW 13 17 7 9 1020.0 1020.0 0.0
30/02:30am 12.7 9.8 8.0 73 2.3 SSW 13 15 7 8 1020.0 1020.0 0.0
30/02:00am 13.1 10.6 8.2 72 2.4 SSW 11 15 6 8 1020.1 1020.1 0.0
30/01:30am 13.4 11.0 8.7 73 2.4 SSW 11 13 6 7 1020.0 1020.0 0.0
30/01:00am 13.8 12.3 9.0 73 2.4 SSW 7 11 4 6 1020.2 1020.2 0.0
30/12:30am 13.9 12.0 9.1 73 2.4 SSW 9 13 5 7 1020.3 1020.3 0.0
30/12:00am 14.3 12.5 9.3 72 2.5 SSW 9 11 5 6 1020.3 1020.3 0.0
 
Date/Time
EST
Temp
°C
App
Temp
°C
Dew
Point
Rel
Hum
%
Delta-T
°C
Wind Press
QNH
hPa
Press
MSL
hPa
Rain
since 9 am
mm
Dir
 
Spd
km/h
Gust
km/h
Spd
kts
Gust
kts
29/11:30pm 14.5 12.7 9.3 71 2.7 SW 9 13 5 7 1020.5 1020.5 0.0
29/11:00pm 14.4 13.2 9.4 72 2.6 SSW 6 9 3 5 1020.6 1020.6 0.0
29/10:30pm 14.4 14.3 9.4 72 2.6 CALM 0 0 0 0 1020.6 1020.6 0.0
29/10:00pm 14.7 13.8 9.3 70 2.8 SE 4 7 2 4 1020.6 1020.6 0.0
29/09:30pm 15.1 15.1 9.7 70 2.8 CALM 0 0 0 0 1020.8 1020.8 0.0
29/09:00pm 15.5 14.1 9.6 68 3.0 SSW 7 9 4 5 1020.6 1020.6 0.0
29/08:30pm 15.9 15.8 9.6 66 3.3 CALM 0 0 0 0 1020.2 1020.2 0.0
29/08:00pm 16.5 16.0 9.4 63 3.7 S 2 6 1 3 1020.0 1020.0 0.0
29/07:30pm 17.0 15.8 9.4 61 4.0 S 6 7 3 4 1019.6 1019.6 0.0
29/07:00pm 18.9 18.9 9.7 55 4.9 CALM 0 0 0 0 1019.3 1019.3 0.0
29/06:30pm 19.6 18.2 9.5 52 5.4 NNE 7 9 4 5 1019.0 1019.0 0.0
29/06:00pm 19.9 18.4 9.2 50 5.6 N 7 13 4 7 1018.7 1018.7 0.0
29/05:30pm 20.3 17.9 8.6 47 6.1 NNE 11 15 6 8 1018.3 1018.3 0.0
29/05:00pm 20.9 18.1 8.5 45 6.5 NE 13 17 7 9 1017.9 1017.9 0.0
29/04:30pm 21.5 18.3 8.4 43 6.9 NE 15 19 8 10 1017.5 1017.5 0.0
29/04:00pm 21.9 18.5 7.7 40 7.4 ENE 15 22 8 12 1017.2 1017.2 0.0
29/03:30pm 22.3 18.3 6.5 36 8.1 NE 17 20 9 11 1016.8 1016.8 0.0
29/03:00pm 22.7 18.8 6.9 36 8.1 NE 17 20 9 11 1016.8 1016.8 0.0
29/02:30pm 23.8 19.9 7.0 34 8.7 NE 17 20 9 11 1016.7 1016.7 0.0
29/02:00pm 24.8 21.4 4.0 26 10.3 NNE 11 17 6 9 1016.7 1016.7 0.0
29/01:30pm 23.7 20.1 3.1 26 9.9 NNE 11 17 6 9 1016.9 1016.9 0.0
29/01:00pm 23.8 20.4 4.2 28 9.7 NE 11 17 6 9 1017.1 1017.1 0.0
29/12:30pm 23.6 20.6 1.9 24 10.2 W 7 13 4 7 1017.6 1017.6 0.0
29/12:00pm 23.7 20.8 2.5 25 10.1 SE 7 11 4 6 1018.1 1018.1 0.0
29/11:30am 23.1 20.2 2.6 26 9.8 SSW 7 15 4 8 1018.6 1018.6 0.0
29/11:00am 22.2 18.9 2.3 27 9.3 SSE 9 15 5 8 1019.1 1019.1 0.0
29/10:30am 21.0 17.7 2.3 29 8.7 SSE 9 15 5 8 1019.5 1019.5 0.0
29/10:00am 20.9 17.3 2.7 30 8.5 S 11 17 6 9 1019.8 1019.8 0.0

Other Formats:

Comma delimited format used in spreadsheet applications
http://www.bom.gov.au/fwo/IDQ60801/IDQ60801.94381.axf

JavaScript Object Notation format (JSON) in row-major order
http://www.bom.gov.au/fwo/IDQ60801/IDQ60801.94381.json